Eagle Butte, South Dakota
Current Conditions -  °F | °C
As of 11:52 PM on Thursday 27 Nov 2014 (Local Time) from KMBG Reporting Station
Clear Clear  
Wind Chill: -3°   Ceiling: Unl
Heat Index: 12°   Visibility: 10mi
Dew Point:   Wind: 13mph
Humidity: 84%   Direction: 90°E
Pressure: 29.81"   Gusts: NA
Location:  45°N, 101.24°W
Report Text: KMBG 280652Z AUTO 09011KT 10SM CLR M11/M13 A2981 RMK AO2 SLP128 T11111133
Loading
Personal Weather Stations






























Interactive Weather Map New forecast layout! Learn more

10-Day Weather Forecast

Advertisements
Track Severe Weather on mobile